Time;durP1;ratioP1;P1;durP2;ratioP2;P2;SDS_P1;SDS_P2;PMS_P1;PMS_P2;Temp;Humidity;BMP_temperature;BMP_pressure;BME280_temperature;BME280_humidity;BME280_pressure;Samples;Min_cycle;Max_cycle;Signal;HPM_P1;HPM_P2
2023/09/04 00:00:58;;;;;;;6.87;5.47;;;15.80;1.00;;;;;;6284161;22;20415;-92
2023/09/04 00:09:54;;;;;;;5.73;5.23;;;15.80;1.00;;;;;;6161831;23;20422;-91
2023/09/04 00:12:30;;;;;;;5.23;4.80;;;;;;;;;;6158979;23;20465;-92
2023/09/04 00:15:26;;;;;;;5.87;5.00;;;15.70;1.00;;;;;;6169687;23;20446;-92
2023/09/04 00:18:16;;;;;;;5.70;4.93;;;;;;;;;;6179551;23;20517;-93
2023/09/04 00:20:57;;;;;;;5.40;4.90;;;;;;;;;;6180382;23;20431;-92
2023/09/04 00:23:40;;;;;;;9.13;4.97;;;;;;;;;;6181844;23;20418;-95
2023/09/04 00:26:21;;;;;;;6.60;5.00;;;;;;;;;;6181778;23;20409;-94
2023/09/04 00:31:47;;;;;;;5.27;4.87;;;;;;;;;;6179483;23;20375;-93
2023/09/04 00:35:07;;;;;;;4.70;4.30;;;15.60;1.00;;;;;;6259249;22;20495;-93
2023/09/04 00:38:06;;;;;;;6.50;4.93;;;;;;;;;;6171838;23;20435;-93
2023/09/04 00:47:20;;;;;;;;;;;;;;;;;;;;;
2023/09/04 00:50:01;;;;;;;5.50;4.97;;;;;;;;;;6286936;22;20415;-93
2023/09/04 00:56:31;;;;;;;5.37;4.87;;;15.30;89.60;;;;;;6282641;22;20401;-93
2023/09/04 00:59:33;;;;;;;8.33;5.90;;;;;;;;;;6277216;22;20432;-93
2023/09/04 01:05:14;;;;;;;7.97;5.67;;;;;;;;;;6302025;22;20393;-94
2023/09/04 01:07:45;;;;;;;5.60;5.10;;;;;;;;;;6295160;22;20444;-92
2023/09/04 01:10:26;;;;;;;5.17;4.67;;;;;;;;;;6288573;22;20412;-93
2023/09/04 01:13:31;;;;;;;8.10;5.37;;;15.00;1.00;;;;;;6289622;22;20404;-93
2023/09/04 01:19:04;;;;;;;11.43;5.27;;;;;;;;;;6162365;23;20381;-93
2023/09/04 01:21:49;;;;;;;5.70;4.87;;;;;;;;;;6166652;23;20559;-93
2023/09/04 01:24:31;;;;;;;5.07;4.57;;;;;;;;;;6169672;23;20935;-93
2023/09/04 01:53:07;;;;;;;7.13;5.13;;;15.10;1.00;;;;;;6248289;22;20402;-92
2023/09/04 03:14:32;;;;;;;5.03;4.47;;;14.70;1.00;;;;;;6191809;23;20407;-93
2023/09/04 06:16:35;;;;;;;7.93;7.13;;;15.80;99.90;;;;;;6266384;22;20450;-87
2023/09/04 06:19:05;;;;;;;11.10;7.70;;;;;;;;;;6274819;22;20397;-88
2023/09/04 06:21:32;;;;;;;10.80;8.70;;;;;;;;;;6275104;22;20410;-88
2023/09/04 06:23:59;;;;;;;10.50;8.70;;;;;;;;;;6266229;22;20407;-87
2023/09/04 06:26:26;;;;;;;9.33;7.50;;;;;;;;;;6285981;22;20425;-88
2023/09/04 06:28:53;;;;;;;10.27;9.23;;;;;;;;;;6290075;22;20442;-87
2023/09/04 06:31:21;;;;;;;7.97;6.97;;;16.10;1.00;;;;;;6290391;22;20406;-87
2023/09/04 06:33:50;;;;;;;12.33;8.70;;;16.30;1.00;;;;;;6289096;22;20430;-88
2023/09/04 06:36:18;;;;;;;8.50;7.57;;;;;;;;;;6294545;22;20419;-88
2023/09/04 06:41:37;;;;;;;9.73;7.03;;;;;;;;;;6296770;22;20447;-88
2023/09/04 06:44:04;;;;;;;12.73;8.10;;;;;;;;;;6286887;22;20428;-88
2023/09/04 06:46:32;;;;;;;9.07;8.17;;;;;;;;;;6283746;22;20590;-88
2023/09/04 06:49:01;;;;;;;13.10;10.70;;;;;;;;;;6286784;22;20430;-87
2023/09/04 06:51:28;;;;;;;9.90;8.90;;;;;;;;;;6288733;22;20393;-88
2023/09/04 06:53:56;;;;;;;8.63;7.73;;;;;;;;;;6283638;22;20946;-88
2023/09/04 06:56:23;;;;;;;8.33;7.33;;;;;;;;;;6284189;22;20400;-88
2023/09/04 06:58:50;;;;;;;8.23;7.10;;;;;;;;;;6282950;22;20436;-88
2023/09/04 07:01:23;;;;;;;8.07;7.03;;;;;;;;;;6295826;22;20395;-85
2023/09/04 07:03:50;;;;;;;8.77;7.80;;;;;;;;;;6305946;22;20431;-86
2023/09/04 07:06:19;;;;;;;7.73;6.50;;;;;;;;;;6305878;22;20459;-86
2023/09/04 07:08:46;;;;;;;6.30;5.70;;;;;;;;;;6290219;22;20418;-87
2023/09/04 07:11:13;;;;;;;14.00;10.40;;;;;;;;;;6288881;22;20411;-88
2023/09/04 07:13:41;;;;;;;7.40;6.70;;;;;;;;;;6288238;22;20395;-88
2023/09/04 07:16:08;;;;;;;11.33;7.33;;;;;;;;;;6291006;22;20421;-88
2023/09/04 07:18:37;;;;;;;7.73;6.50;;;;;;;;;;6287973;22;20498;-88
2023/09/04 07:21:05;;;;;;;6.00;5.40;;;;;;;;;;6286371;22;20443;-88
2023/09/04 07:23:33;;;;;;;9.77;7.93;;;17.80;1.00;;;;;;6283701;22;20415;-89
2023/09/04 07:26:05;;;;;;;12.00;7.63;;;;;;;;;;6281325;22;20428;-88
2023/09/04 07:28:34;;;;;;;9.83;6.63;;;;;;;;;;6282133;22;20534;-89
2023/09/04 07:31:32;;;;;;;;;;;;;;;;;;;;;
2023/09/04 07:34:03;;;;;;;7.80;5.17;;;;;;;;;;6288377;22;20413;-88
2023/09/04 07:36:35;;;;;;;8.53;6.07;;;;;;;;;;6295146;22;20364;-88
2023/09/04 07:39:04;;;;;;;10.13;5.20;;;;;;;;;;6305749;22;20418;-87
2023/09/04 07:41:32;;;;;;;4.83;4.43;;;;;;;;;;6305902;22;20428;-87
2023/09/04 07:44:02;;;;;;;5.60;5.10;;;;;;;;;;6305260;22;20794;-87
2023/09/04 07:46:32;;;;;;;5.60;4.97;;;;;;;;;;6298526;22;20397;-88
2023/09/04 07:49:01;;;;;;;10.90;7.37;;;;;;;;;;6287561;22;20386;-88
2023/09/04 07:51:34;;;;;;;5.33;4.83;;;;;;;;;;6286688;22;20408;-88
2023/09/04 07:54:07;;;;;;;5.77;5.17;;;18.60;1.00;;;;;;6285612;22;20396;-88
2023/09/04 07:56:35;;;;;;;4.93;4.63;;;;;;;;;;6283575;22;20431;-88
2023/09/04 07:59:19;;;;;;;6.60;5.23;;;18.80;1.00;;;;;;6284243;22;20436;-88
2023/09/04 08:01:49;;;;;;;5.23;4.73;;;;;;;;;;6288757;22;20400;-88
2023/09/04 08:04:19;;;;;;;4.73;3.97;;;;;;;;;;6298883;22;20405;-88
2023/09/04 08:06:54;;;;;;;7.40;5.50;;;;;;;;;;6303758;22;20440;-88
2023/09/04 08:09:23;;;;;;;4.00;3.70;;;;;;;;;;6303517;22;20412;-88
2023/09/04 08:11:53;;;;;;;7.10;4.60;;;;;;;;;;6295949;22;20416;-88
2023/09/04 08:14:22;;;;;;;4.03;3.70;;;;;;;;;;6286944;22;20435;-88
2023/09/04 08:16:49;;;;;;;3.43;2.90;;;;;;;;;;6301073;22;20385;-88
2023/09/04 08:19:17;;;;;;;4.53;3.10;;;;;;;;;;6305039;22;20472;-88
2023/09/04 08:21:45;;;;;;;3.87;3.57;;;;;;;;;;6304629;22;20539;-87
2023/09/04 08:24:12;;;;;;;3.83;3.00;;;;;;;;;;6297461;22;20409;-86
2023/09/04 08:26:45;;;;;;;3.00;2.73;;;;;;;;;;6292178;22;20416;-88
2023/09/04 08:29:12;;;;;;;2.80;2.60;;;;;;;;;;6294149;22;20451;-87
2023/09/04 08:31:41;;;;;;;5.40;3.60;;;;;;;;;;6295581;22;20427;-88
2023/09/04 08:34:13;;;;;;;2.93;2.73;;;;;;;;;;6291243;22;20450;-87
2023/09/04 08:36:40;;;;;;;3.60;3.30;;;;;;;;;;6294724;22;20709;-87
2023/09/04 08:39:07;;;;;;;2.97;2.77;;;;;;;;;;6292269;22;20440;-86
2023/09/04 08:41:42;;;;;;;5.80;2.67;;;19.70;99.90;;;;;;6292392;22;20428;-87
2023/09/04 08:44:15;;;;;;;3.80;2.70;;;19.70;99.90;;;;;;6284098;22;20423;-88
2023/09/04 08:46:47;;;;;;;2.93;2.73;;;19.80;99.90;;;;;;6284088;22;20427;-88
2023/09/04 08:49:24;;;;;;;3.00;2.80;;;;;;;;;;6290130;22;20384;-88
2023/09/04 08:51:53;;;;;;;3.90;2.83;;;19.90;99.90;;;;;;6305060;22;20404;-87
2023/09/04 08:54:20;;;;;;;3.07;2.77;;;;;;;;;;6304893;22;20420;-87
2023/09/04 08:56:48;;;;;;;3.40;3.07;;;;;;;;;;6298079;22;20381;-88
2023/09/04 08:59:17;;;;;;;3.17;2.97;;;;;;;;;;6286630;22;20492;-88
2023/09/04 09:01:44;;;;;;;4.63;3.43;;;;;;;;;;6295967;22;20461;-87
2023/09/04 09:04:11;;;;;;;3.50;3.20;;;;;;;;;;6304748;22;20407;-87
2023/09/04 09:06:40;;;;;;;3.43;3.13;;;;;;;;;;6303292;22;20399;-87
2023/09/04 09:09:10;;;;;;;3.93;3.50;;;;;;;;;;6296739;22;20393;-87
2023/09/04 09:11:41;;;;;;;3.30;3.10;;;;;;;;;;6299382;22;20476;-86
2023/09/04 09:14:08;;;;;;;5.33;3.50;;;;;;;;;;6304566;22;20358;-87
2023/09/04 09:16:39;;;;;;;6.17;3.40;;;;;;;;;;6304910;22;20396;-87
2023/09/04 09:19:11;;;;;;;5.10;3.30;;;20.30;49.50;;;;;;6304685;22;20411;-87
2023/09/04 09:21:38;;;;;;;5.07;3.27;;;;;;;;;;6304080;22;20388;-87
2023/09/04 09:24:18;;;;;;;3.37;3.07;;;;;;;;;;6284626;22;20506;-88
2023/09/04 09:26:46;;;;;;;4.47;3.50;;;20.30;1.00;;;;;;6284942;22;20400;-88
2023/09/04 09:29:16;;;;;;;3.23;2.80;;;;;;;;;;6283677;22;20570;-88
2023/09/04 09:31:46;;;;;;;4.83;2.50;;;;;;;;;;6284055;22;20419;-88
2023/09/04 09:34:13;;;;;;;4.43;2.90;;;;;;;;;;6283958;22;20514;-87
2023/09/04 09:36:43;;;;;;;3.50;3.17;;;;;;;;;;6283831;22;20487;-88
2023/09/04 09:39:14;;;;;;;3.70;3.40;;;;;;;;;;6283332;22;20460;-88
2023/09/04 09:41:43;;;;;;;3.20;2.90;;;;;;;;;;6281825;22;20423;-88
2023/09/04 09:44:10;;;;;;;4.00;3.20;;;;;;;;;;6281867;22;20810;-88
2023/09/04 09:46:41;;;;;;;3.67;3.33;;;;;;;;;;6283261;22;20739;-88
2023/09/04 09:49:12;;;;;;;3.67;3.37;;;20.80;1.00;;;;;;6283587;22;20727;-88
2023/09/04 09:51:42;;;;;;;4.47;4.00;;;;;;;;;;6286151;22;20384;-89
2023/09/04 09:54:12;;;;;;;3.93;3.63;;;;;;;;;;6285200;22;20539;-88
2023/09/04 09:56:42;;;;;;;3.63;2.87;;;20.90;1.00;;;;;;6284019;22;20392;-88
2023/09/04 09:59:12;;;;;;;5.57;2.70;;;;;;;;;;6302028;22;20412;-89
2023/09/04 10:01:40;;;;;;;4.17;3.30;;;;;;;;;;6305893;22;20494;-88
2023/09/04 10:04:08;;;;;;;5.33;3.70;;;;;;;;;;6287172;22;20415;-88
2023/09/04 10:06:39;;;;;;;4.67;3.17;;;;;;;;;;6283492;22;20410;-88
2023/09/04 10:09:11;;;;;;;4.80;3.93;;;21.10;1.00;;;;;;6284521;22;20415;-89
2023/09/04 10:11:44;;;;;;;4.20;3.20;;;21.10;1.00;;;;;;6295814;22;20396;-88
2023/09/04 10:14:18;;;;;;;3.73;3.43;;;21.20;1.00;;;;;;6303636;22;20516;-87
2023/09/04 10:16:51;;;;;;;2.90;2.70;;;21.20;1.00;;;;;;6303865;22;20359;-89
2023/09/04 10:19:20;;;;;;;4.73;3.37;;;;;;;;;;6306148;22;20411;-88
2023/09/04 10:21:54;;;;;;;11.90;3.67;;;21.30;1.00;;;;;;6305652;22;20395;-88
2023/09/04 10:24:34;;;;;;;4.23;3.93;;;21.30;1.00;;;;;;6298574;22;20499;-88
2023/09/04 10:27:08;;;;;;;3.97;3.67;;;21.40;1.00;;;;;;6289831;22;20426;-88
2023/09/04 10:29:42;;;;;;;3.17;2.97;;;21.40;1.00;;;;;;6289949;22;20374;-88
2023/09/04 10:32:17;;;;;;;4.80;3.70;;;21.40;1.00;;;;;;6298061;22;20403;-88
2023/09/04 10:34:45;;;;;;;3.50;3.20;;;;;;;;;;6290028;22;20510;-89
2023/09/04 10:37:16;;;;;;;3.70;3.03;;;;;;;;;;6286610;22;20803;-89
2023/09/04 10:39:52;;;;;;;3.57;3.27;;;21.50;1.00;;;;;;6286219;22;20492;-88
2023/09/04 10:42:23;;;;;;;4.57;3.90;;;21.60;1.00;;;;;;6289755;22;20894;-88
2023/09/04 10:44:51;;;;;;;3.43;3.17;;;;;;;;;;6295959;22;20443;-88
2023/09/04 10:47:24;;;;;;;3.73;2.97;;;21.70;1.00;;;;;;6303238;22;20396;-87
2023/09/04 10:49:54;;;;;;;4.57;3.73;;;21.80;1.00;;;;;;6306356;22;20415;-87
2023/09/04 10:52:23;;;;;;;5.57;3.93;;;;;;;;;;6306154;22;20414;-87
2023/09/04 10:55:24;;;;;;;3.67;3.37;;;21.90;1.00;;;;;;6305747;22;20411;-87
2023/09/04 10:57:55;;;;;;;5.77;5.10;;;;;;;;;;6294982;22;20407;-89
2023/09/04 11:00:40;;;;;;;3.50;3.17;;;22.00;1.00;;;;;;6292763;22;20472;-89
2023/09/04 11:03:21;;;;;;;3.80;3.50;;;22.10;1.00;;;;;;6293646;22;20389;-89
2023/09/04 11:06:20;;;;;;;4.50;4.10;;;22.10;1.00;;;;;;6290444;22;20428;-89
2023/09/04 11:08:52;;;;;;;5.60;4.10;;;22.10;1.00;;;;;;6298241;22;20428;-89
2023/09/04 11:11:28;;;;;;;5.30;4.10;;;22.20;1.00;;;;;;6299802;22;20401;-88
2023/09/04 11:14:08;;;;;;;5.70;4.03;;;;;;;;;;6299641;22;20396;-88
2023/09/04 11:16:50;;;;;;;8.73;4.37;;;22.20;1.00;;;;;;6270450;23;20389;-88
2023/09/04 11:19:25;;;;;;;6.60;4.70;;;22.20;1.00;;;;;;6272333;22;20471;-87
2023/09/04 11:21:52;;;;;;;6.07;5.00;;;;;;;;;;6274280;22;20401;-88
2023/09/04 11:24:22;;;;;;;3.63;3.33;;;;;;;;;;6272488;22;20426;-88
2023/09/04 11:26:55;;;;;;;4.50;3.73;;;;;;;;;;6264221;23;20417;-89
2023/09/04 11:29:28;;;;;;;5.20;3.40;;;;;;;;;;6261678;23;20477;-88
2023/09/04 11:32:00;;;;;;;4.90;3.97;;;;;;;;;;6257246;23;20451;-89
2023/09/04 11:34:27;;;;;;;3.53;3.23;;;;;;;;;;6258766;23;20420;-89
2023/09/04 11:37:00;;;;;;;4.33;3.93;;;;;;;;;;6257919;23;20401;-89
2023/09/04 11:39:42;;;;;;;8.33;6.47;;;;;;;;;;6256994;23;20394;-89
2023/09/04 11:42:21;;;;;;;4.10;3.60;;;22.50;1.00;;;;;;6252661;23;20411;-88
2023/09/04 11:44:49;;;;;;;5.23;3.50;;;;;;;;;;6259557;23;20433;-88
2023/09/04 11:47:20;;;;;;;3.63;3.33;;;;;;;;;;6268921;23;20433;-88
2023/09/04 11:49:55;;;;;;;3.70;3.40;;;22.60;1.00;;;;;;6272457;23;20417;-88
2023/09/04 11:52:26;;;;;;;4.40;3.73;;;22.70;1.00;;;;;;6266463;23;20386;-88
2023/09/04 11:54:57;;;;;;;5.00;3.60;;;;;;;;;;6260519;22;20413;-88
2023/09/04 11:57:36;;;;;;;3.70;3.40;;;;;;;;;;6259207;22;20931;-88
2023/09/04 12:00:21;;;;;;;3.43;3.17;;;22.70;1.00;;;;;;6252606;23;20417;-88
2023/09/04 12:02:56;;;;;;;4.23;3.87;;;;;;;;;;6258811;23;20416;-88
2023/09/04 12:05:31;;;;;;;4.50;3.77;;;;;;;;;;6256190;23;20428;-88
2023/09/04 12:08:07;;;;;;;5.20;3.80;;;;;;;;;;6259501;23;20415;-88
2023/09/04 12:10:40;;;;;;;7.63;3.53;;;;;;;;;;6253881;23;20384;-88
2023/09/04 12:13:20;;;;;;;4.47;4.07;;;22.90;1.00;;;;;;6254658;23;20413;-88
2023/09/04 12:15:48;;;;;;;3.40;3.20;;;;;;;;;;6258251;22;20471;-88
2023/09/04 12:18:17;;;;;;;6.53;3.60;;;22.90;1.00;;;;;;6269901;22;20389;-88
2023/09/04 12:20:45;;;;;;;4.47;3.70;;;23.10;1.00;;;;;;6264844;23;20500;-89
2023/09/04 12:23:13;;;;;;;4.43;4.13;;;;;;;;;;6257619;23;20876;-89
2023/09/04 12:25:41;;;;;;;5.57;4.83;;;23.00;1.00;;;;;;6257839;22;20449;-88
2023/09/04 12:28:14;;;;;;;4.10;3.70;;;;;;;;;;6258980;23;20728;-89
2023/09/04 12:30:44;;;;;;;4.17;3.77;;;23.00;1.00;;;;;;6254987;23;20386;-89
2023/09/04 12:33:16;;;;;;;11.57;4.07;;;23.00;1.00;;;;;;6255759;23;20425;-89
2023/09/04 12:35:44;;;;;;;9.10;6.03;;;;;;;;;;6255219;22;20479;-89
2023/09/04 12:38:12;;;;;;;5.70;3.60;;;;;;;;;;6257808;23;20520;-88
2023/09/04 12:40:44;;;;;;;5.93;5.30;;;;;;;;;;6255944;23;20456;-89
2023/09/04 12:43:14;;;;;;;5.43;3.70;;;;;;;;;;6255074;23;20397;-88
2023/09/04 12:45:42;;;;;;;4.93;4.37;;;;;;;;;;6256303;22;20824;-89
2023/09/04 12:48:17;;;;;;;6.13;3.53;;;;;;;;;;6256539;23;20464;-89
2023/09/04 12:50:44;;;;;;;3.10;2.90;;;;;;;;;;6257932;23;20373;-89
2023/09/04 12:53:12;;;;;;;3.80;3.40;;;;;;;;;;6264150;23;20428;-89
2023/09/04 12:55:39;;;;;;;3.50;3.20;;;;;;;;;;6273180;22;20417;-87
2023/09/04 12:58:10;;;;;;;23.50;6.90;;;23.30;1.00;;;;;;6263160;23;20435;-89
2023/09/04 13:00:40;;;;;;;10.20;4.07;;;;;;;;;;6258949;23;20433;-88
2023/09/04 13:03:08;;;;;;;33.93;7.10;;;;;;;;;;6259648;23;20410;-89
2023/09/04 13:05:40;;;;;;;8.33;3.87;;;;;;;;;;6257693;22;20426;-89
2023/09/04 13:08:08;;;;;;;4.63;3.50;;;;;;;;;;6258674;23;20424;-89
2023/09/04 13:10:35;;;;;;;5.57;3.30;;;;;;;;;;6254577;23;20425;-88
2023/09/04 13:13:03;;;;;;;4.93;3.37;;;;;;;;;;6256114;23;20409;-89
2023/09/04 13:15:33;;;;;;;4.03;3.17;;;;;;;;;;6254457;22;20433;-89
2023/09/04 13:18:02;;;;;;;4.87;3.30;;;;;;;;;;6255315;23;20725;-88
2023/09/04 13:20:29;;;;;;;6.70;3.90;;;;;;;;;;6255522;23;20772;-89
2023/09/04 13:22:58;;;;;;;3.30;3.00;;;;;;;;;;6255231;23;20748;-88
2023/09/04 13:25:26;;;;;;;4.27;3.77;;;;;;;;;;6253195;22;20936;-88
2023/09/04 13:27:53;;;;;;;3.77;3.40;;;;;;;;;;6269092;22;20405;-89
2023/09/04 13:30:25;;;;;;;3.77;3.43;;;;;;;;;;6255074;23;20393;-89
2023/09/04 13:32:53;;;;;;;3.90;3.50;;;;;;;;;;6273425;22;20388;-89
2023/09/04 13:35:29;;;;;;;4.37;3.90;;;;;;;;;;6273899;22;20413;-87
2023/09/04 13:38:04;;;;;;;4.87;3.20;;;23.60;1.00;;;;;;6259734;23;20370;-88
2023/09/04 13:40:36;;;;;;;3.73;3.43;;;;;;;;;;6253907;23;20451;-89
2023/09/04 13:43:03;;;;;;;5.13;4.53;;;;;;;;;;6256011;23;20472;-89
2023/09/04 13:45:33;;;;;;;4.73;3.50;;;;;;;;;;6255543;22;20815;-88
2023/09/04 13:48:01;;;;;;;5.00;3.67;;;;;;;;;;6255194;23;20500;-88
2023/09/04 13:50:30;;;;;;;5.23;3.60;;;;;;;;;;6272635;22;20437;-87
2023/09/04 13:52:57;;;;;;;3.50;3.20;;;;;;;;;;6272895;22;20402;-88
2023/09/04 13:55:36;;;;;;;4.30;3.43;;;23.80;1.00;;;;;;6272802;22;20425;-88
2023/09/04 13:58:03;;;;;;;4.67;4.27;;;;;;;;;;6272525;22;20405;-89
2023/09/04 14:00:31;;;;;;;3.80;3.50;;;;;;;;;;6272451;22;20449;-89
2023/09/04 14:03:09;;;;;;;3.90;3.60;;;;;;;;;;6272976;22;20497;-88
2023/09/04 14:05:39;;;;;;;4.10;3.33;;;;;;;;;;6272719;22;20441;-88
2023/09/04 14:08:06;;;;;;;3.73;3.43;;;;;;;;;;6272977;22;20420;-88
2023/09/04 14:10:38;;;;;;;6.70;4.17;;;;;;;;;;6273550;22;20473;-88
2023/09/04 14:13:06;;;;;;;6.30;3.43;;;;;;;;;;6275402;22;20389;-88
2023/09/04 14:15:38;;;;;;;5.63;4.17;;;;;;;;;;6271040;22;20765;-88
2023/09/04 14:18:07;;;;;;;6.73;4.50;;;;;;;;;;6272745;22;20397;-89
2023/09/04 14:20:34;;;;;;;3.87;3.57;;;;;;;;;;6273412;22;20424;-88
2023/09/04 14:23:04;;;;;;;3.93;3.60;;;;;;;;;;6272261;22;20401;-89
2023/09/04 14:25:31;;;;;;;5.77;4.40;;;;;;;;;;6259897;22;20498;-88
2023/09/04 14:28:01;;;;;;;4.23;3.87;;;;;;;;;;6259901;23;20428;-90
2023/09/04 14:30:28;;;;;;;7.30;3.60;;;;;;;;;;6261781;22;20421;-89
2023/09/04 14:32:59;;;;;;;4.47;3.97;;;;;;;;;;6259260;23;20419;-88
2023/09/04 14:35:31;;;;;;;5.70;4.00;;;;;;;;;;6272004;22;20489;-88
2023/09/04 14:38:00;;;;;;;4.83;4.33;;;;;;;;;;6273803;23;20393;-89
2023/09/04 14:40:33;;;;;;;4.53;4.23;;;;;;;;;;6269290;22;20943;-88
2023/09/04 14:43:05;;;;;;;6.03;3.83;;;;;;;;;;6258694;23;20480;-89
2023/09/04 14:45:37;;;;;;;3.10;2.80;;;;;;;;;;6257703;22;20812;-89
2023/09/04 14:48:10;;;;;;;15.00;12.40;;;24.00;1.00;;;;;;6270765;22;20377;-90
2023/09/04 14:50:49;;;;;;;5.43;4.93;;;;;;;;;;6275028;22;20382;-88
2023/09/04 14:53:16;;;;;;;5.80;4.60;;;;;;;;;;6274978;22;20377;-89
2023/09/04 14:55:45;;;;;;;5.30;4.20;;;;;;;;;;6275067;22;20419;-88
2023/09/04 14:58:12;;;;;;;4.50;3.73;;;;;;;;;;6274702;22;20398;-88
2023/09/04 15:00:41;;;;;;;6.07;4.00;;;;;;;;;;6274943;22;20504;-88
2023/09/04 15:03:10;;;;;;;4.40;4.03;;;;;;;;;;6273033;22;20405;-88
2023/09/04 15:05:38;;;;;;;5.80;4.00;;;;;;;;;;6258883;22;20433;-89
2023/09/04 15:08:05;;;;;;;6.57;4.23;;;24.40;99.90;;;;;;6259130;23;20440;-88
2023/09/04 15:10:33;;;;;;;4.07;3.73;;;;;;;;;;6257935;23;20414;-89
2023/09/04 15:13:09;;;;;;;6.10;4.27;;;;;;;;;;6267928;22;20918;-90
2023/09/04 15:15:36;;;;;;;5.67;3.77;;;;;;;;;;6258808;22;20441;-89
2023/09/04 15:22:24;;;;;;;3.53;3.23;;;23.80;1.00;;;;;;6046648;23;20451;-88
2023/09/04 15:24:53;;;;;;;14.60;3.87;;;;;;;;;;6162741;23;20659;-88
2023/09/04 15:27:21;;;;;;;4.33;3.93;;;;;;;;;;6268552;23;20409;-88
2023/09/04 15:29:50;;;;;;;5.20;4.80;;;;;;;;;;6271333;23;20414;-88
2023/09/04 15:32:20;;;;;;;4.43;3.90;;;23.70;1.00;;;;;;6266830;23;20389;-89
2023/09/04 15:34:50;;;;;;;5.60;4.20;;;;;;;;;;6260237;22;20449;-89
2023/09/04 15:37:24;;;;;;;4.67;4.20;;;;;;;;;;6260393;23;20393;-88
2023/09/04 15:39:51;;;;;;;3.73;3.53;;;;;;;;;;6258242;23;20397;-88
2023/09/04 15:42:22;;;;;;;6.00;5.00;;;23.70;1.00;;;;;;6256358;23;20548;-88
2023/09/04 15:44:50;;;;;;;3.63;3.37;;;;;;;;;;6257446;22;20414;-88
2023/09/04 15:47:24;;;;;;;3.97;3.67;;;;;;;;;;6257464;23;20409;-88
2023/09/04 15:49:54;;;;;;;4.50;4.10;;;;;;;;;;6254809;23;20413;-89
2023/09/04 15:52:21;;;;;;;4.60;4.20;;;;;;;;;;6255900;23;20409;-89
2023/09/04 15:54:51;;;;;;;4.70;4.30;;;;;;;;;;6258389;22;20512;-88
2023/09/04 15:57:21;;;;;;;11.33;3.27;;;;;;;;;;6258172;23;20370;-89
2023/09/04 15:59:50;;;;;;;4.43;3.30;;;;;;;;;;6269349;23;20410;-89
2023/09/04 16:02:31;;;;;;;5.90;4.57;;;23.80;1.00;;;;;;6273493;22;20437;-88
2023/09/04 16:05:00;;;;;;;8.63;4.93;;;;;;;;;;6270646;22;20429;-89
2023/09/04 16:07:30;;;;;;;4.60;4.20;;;;;;;;;;6258245;23;20908;-89
2023/09/04 16:09:57;;;;;;;6.87;5.20;;;;;;;;;;6258417;23;20713;-89
2023/09/04 16:12:25;;;;;;;7.50;6.60;;;;;;;;;;6257794;23;20421;-89
2023/09/04 16:14:52;;;;;;;7.77;6.90;;;;;;;;;;6258497;22;20437;-88
2023/09/04 16:17:24;;;;;;;7.57;6.73;;;;;;;;;;6262249;23;20467;-90
2023/09/04 16:19:54;;;;;;;6.43;5.63;;;;;;;;;;6258525;23;20406;-89
2023/09/04 16:22:22;;;;;;;11.17;6.30;;;;;;;;;;6254430;23;20437;-89
2023/09/04 16:24:57;;;;;;;4.33;3.93;;;;;;;;;;6257632;22;20433;-90
2023/09/04 16:27:37;;;;;;;2.77;2.57;;;;;;;;;;6256676;23;20389;-91
2023/09/04 16:30:05;;;;;;;4.57;4.17;;;;;;;;;;6259559;23;20494;-89
2023/09/04 16:32:37;;;;;;;7.73;5.33;;;;;;;;;;6259090;23;20394;-89
2023/09/04 16:35:04;;;;;;;5.40;4.90;;;;;;;;;;6259570;22;20513;-89
2023/09/04 16:37:39;;;;;;;5.80;5.20;;;;;;;;;;6257758;23;20441;-89
2023/09/04 16:40:13;;;;;;;4.23;3.60;;;;;;;;;;6262389;23;20713;-89
2023/09/04 16:42:41;;;;;;;4.20;3.80;;;;;;;;;;6272441;22;20429;-89
2023/09/04 16:45:13;;;;;;;3.33;3.13;;;;;;;;;;6262480;22;20760;-89
2023/09/04 16:47:48;;;;;;;5.20;4.70;;;;;;;;;;6262428;23;20412;-89
2023/09/04 16:50:19;;;;;;;7.30;6.10;;;;;;;;;;6259259;23;20413;-89
2023/09/04 16:52:49;;;;;;;4.67;4.27;;;;;;;;;;6260553;23;20401;-89
2023/09/04 16:55:21;;;;;;;4.23;3.90;;;;;;;;;;6262708;22;20452;-89
2023/09/04 16:57:50;;;;;;;5.50;4.30;;;;;;;;;;6264849;23;20446;-89
2023/09/04 17:00:23;;;;;;;7.13;4.87;;;;;;;;;;6262858;23;20467;-89
2023/09/04 17:02:55;;;;;;;7.10;4.13;;;;;;;;;;6264768;23;20440;-89
2023/09/04 17:05:23;;;;;;;5.83;4.40;;;22.60;1.00;;;;;;6272308;22;20414;-89
2023/09/04 17:07:59;;;;;;;4.20;3.90;;;;;;;;;;6273540;22;20386;-88
2023/09/04 17:10:28;;;;;;;3.67;3.47;;;;;;;;;;6273415;22;20412;-88
2023/09/04 17:13:00;;;;;;;3.50;3.30;;;;;;;;;;6258712;23;20471;-89
2023/09/04 17:15:28;;;;;;;4.37;3.97;;;;;;;;;;6257484;22;20437;-90
2023/09/04 17:18:08;;;;;;;4.23;3.90;;;;;;;;;;6259873;23;20460;-89
2023/09/04 17:20:45;;;;;;;2.83;2.70;;;22.30;1.00;;;;;;6263274;23;20457;-89
2023/09/04 17:23:20;;;;;;;3.67;3.47;;;;;;;;;;6265519;22;20409;-89
2023/09/04 17:25:51;;;;;;;6.50;3.27;;;;;;;;;;6258420;22;20439;-89
2023/09/04 17:28:18;;;;;;;3.43;3.10;;;;;;;;;;6255346;23;20752;-89
2023/09/04 17:30:48;;;;;;;3.70;3.40;;;;;;;;;;6260194;23;20405;-88
2023/09/04 17:33:22;;;;;;;3.90;3.60;;;;;;;;;;6258295;23;20425;-89
2023/09/04 17:35:52;;;;;;;4.80;3.93;;;;;;;;;;6269863;22;20444;-90
2023/09/04 17:38:19;;;;;;;6.77;5.90;;;;;;;;;;6257594;23;20409;-90
2023/09/04 17:40:50;;;;;;;19.57;15.07;;;;;;;;;;6256341;23;20405;-90
2023/09/04 17:43:17;;;;;;;24.90;19.70;;;;;;;;;;6255389;23;20500;-89
2023/09/04 17:45:56;;;;;;;12.00;9.73;;;;;;;;;;6256994;22;20464;-88
2023/09/04 17:48:25;;;;;;;6.87;5.87;;;;;;;;;;6258404;23;20394;-89
2023/09/04 17:51:00;;;;;;;7.70;6.80;;;;;;;;;;6256995;23;20444;-89
2023/09/04 17:53:27;;;;;;;8.87;7.53;;;;;;;;;;6255332;23;20405;-89
2023/09/04 17:55:55;;;;;;;13.13;9.17;;;;;;;;;;6256717;22;20429;-89
2023/09/04 17:58:24;;;;;;;8.60;7.40;;;;;;;;;;6258316;23;20409;-89
2023/09/04 18:00:54;;;;;;;8.67;7.67;;;;;;;;;;6257021;23;20413;-88
2023/09/04 18:03:26;;;;;;;12.60;10.40;;;;;;;;;;6257172;23;20437;-89
2023/09/04 18:05:53;;;;;;;13.10;10.73;;;;;;;;;;6257558;22;20440;-89
2023/09/04 18:08:24;;;;;;;12.33;9.97;;;21.40;99.90;;;;;;6264772;22;20406;-88
2023/09/04 18:10:57;;;;;;;11.30;10.03;;;;;;;;;;6264803;22;20389;-89
2023/09/04 18:13:25;;;;;;;12.70;9.10;;;;;;;;;;6259224;23;20398;-89
2023/09/04 20:11:59;;;;;;;24.13;15.77;;;19.50;1.00;;;;;;6120763;23;20413;-88
2023/09/04 20:14:26;;;;;;;18.63;13.40;;;;;;;;;;6216743;23;20500;-88
2023/09/04 20:16:56;;;;;;;24.37;18.00;;;;;;;;;;6254775;23;20451;-88
2023/09/04 20:19:24;;;;;;;23.57;16.70;;;;;;;;;;6255361;23;20401;-88
2023/09/04 20:21:54;;;;;;;22.40;17.17;;;;;;;;;;6257828;23;20951;-88
2023/09/04 20:24:22;;;;;;;20.53;14.90;;;;;;;;;;6258714;23;20436;-88
2023/09/04 20:26:53;;;;;;;21.17;13.87;;;;;;;;;;6266508;22;20477;-88
2023/09/04 20:29:21;;;;;;;12.80;11.00;;;;;;;;;;6272374;22;20409;-88
2023/09/04 20:31:48;;;;;;;17.30;12.40;;;;;;;;;;6265924;23;20437;-89
2023/09/04 20:34:15;;;;;;;17.53;13.00;;;;;;;;;;6272026;22;20425;-90
2023/09/04 23:22:42;;;;;;;7.17;6.50;;;;;;;;;;6273399;22;20424;-91
2023/09/04 23:25:12;;;;;;;10.30;7.60;;;;;;;;;;6274503;22;20401;-94
2023/09/04 23:27:45;;;;;;;10.50;7.77;;;;;;;;;;6275038;22;20420;-93
2023/09/04 23:30:16;;;;;;;10.77;8.03;;;;;;;;;;6273648;22;20417;-92
2023/09/04 23:33:01;;;;;;;7.97;7.07;;;;;;;;;;6268079;23;20763;-92
2023/09/04 23:35:53;;;;;;;10.43;7.10;;;;;;;;;;6263159;23;20405;-92
2023/09/04 23:38:29;;;;;;;7.80;7.10;;;;;;;;;;6257498;22;20465;-92
2023/09/04 23:46:32;;;;;;;7.10;6.50;;;;;;;;;;6252995;23;20894;-92
2023/09/04 23:49:01;;;;;;;12.20;6.70;;;;;;;;;;6251995;22;20441;-91
2023/09/04 23:51:28;;;;;;;8.03;6.00;;;;;;;;;;6254945;23;20440;-91
2023/09/04 23:53:57;;;;;;;8.53;7.30;;;;;;;;;;6257296;23;20413;-93
2023/09/04 23:56:24;;;;;;;7.20;6.53;;;;;;;;;;6253801;23;20739;-92
2023/09/04 23:58:52;;;;;;;8.47;7.50;;;;;;;;;;6254136;22;20457;-92
